sensor_id;sensor_type;location;lat;lon;timestamp;pressure;altitude;pressure_sealevel;temperature;humidity
4392;BME280;2210;51.938;8.488;2023-03-04T00:01:10;101324.63;;;3.15;100.00
4392;BME280;2210;51.938;8.488;2023-03-04T00:05:10;101329.06;;;3.08;100.00
4392;BME280;2210;51.938;8.488;2023-03-04T00:09:16;101338.06;;;3.17;100.00
4392;BME280;2210;51.938;8.488;2023-03-04T00:13:16;101334.88;;;3.22;100.00
4392;BME280;2210;51.938;8.488;2023-03-04T00:17:19;101332.97;;;3.30;100.00
4392;BME280;2210;51.938;8.488;2023-03-04T00:21:20;101331.97;;;3.31;100.00
4392;BME280;2210;51.938;8.488;2023-03-04T00:25:20;101343.19;;;3.20;100.00
4392;BME280;2210;51.938;8.488;2023-03-04T00:29:23;101336.41;;;3.32;100.00
4392;BME280;2210;51.938;8.488;2023-03-04T00:33:24;101337.25;;;3.49;100.00
4392;BME280;2210;51.938;8.488;2023-03-04T00:37:27;101330.59;;;3.60;100.00
4392;BME280;2210;51.938;8.488;2023-03-04T00:41:27;101321.06;;;3.40;100.00
4392;BME280;2210;51.938;8.488;2023-03-04T00:45:28;101324.09;;;3.28;100.00
4392;BME280;2210;51.938;8.488;2023-03-04T00:49:28;101320.53;;;3.36;100.00
4392;BME280;2210;51.938;8.488;2023-03-04T00:53:28;101321.41;;;3.45;100.00
4392;BME280;2210;51.938;8.488;2023-03-04T00:57:28;101316.81;;;3.37;100.00
4392;BME280;2210;51.938;8.488;2023-03-04T01:01:32;101315.97;;;3.45;100.00
4392;BME280;2210;51.938;8.488;2023-03-04T01:05:32;101318.00;;;3.34;100.00
4392;BME280;2210;51.938;8.488;2023-03-04T01:09:35;101315.09;;;3.44;100.00
4392;BME280;2210;51.938;8.488;2023-03-04T01:13:35;101310.16;;;3.40;100.00
4392;BME280;2210;51.938;8.488;2023-03-04T01:17:44;101315.44;;;3.49;100.00
4392;BME280;2210;51.938;8.488;2023-03-04T01:21:45;101320.03;;;3.49;100.00
4392;BME280;2210;51.938;8.488;2023-03-04T01:25:45;101306.06;;;3.52;100.00
4392;BME280;2210;51.938;8.488;2023-03-04T01:29:45;101311.16;;;3.55;100.00
4392;BME280;2210;51.938;8.488;2023-03-04T01:33:45;101301.28;;;3.62;100.00
4392;BME280;2210;51.938;8.488;2023-03-04T01:37:46;101303.13;;;3.70;100.00
4392;BME280;2210;51.938;8.488;2023-03-04T01:41:46;101288.81;;;3.76;100.00
4392;BME280;2210;51.938;8.488;2023-03-04T01:45:48;101294.09;;;3.78;100.00
4392;BME280;2210;51.938;8.488;2023-03-04T01:49:52;101279.91;;;3.82;100.00
4392;BME280;2210;51.938;8.488;2023-03-04T01:53:59;101275.50;;;3.81;100.00
4392;BME280;2210;51.938;8.488;2023-03-04T01:57:59;101276.69;;;3.87;100.00
4392;BME280;2210;51.938;8.488;2023-03-04T02:02:03;101266.13;;;3.84;100.00
4392;BME280;2210;51.938;8.488;2023-03-04T02:06:06;101255.69;;;3.87;100.00
4392;BME280;2210;51.938;8.488;2023-03-04T02:10:12;101255.84;;;3.94;100.00
4392;BME280;2210;51.938;8.488;2023-03-04T02:14:14;101257.59;;;3.87;100.00
4392;BME280;2210;51.938;8.488;2023-03-04T02:18:20;101250.06;;;3.89;100.00
4392;BME280;2210;51.938;8.488;2023-03-04T02:22:20;101247.00;;;3.92;100.00
4392;BME280;2210;51.938;8.488;2023-03-04T02:26:28;101249.88;;;3.99;100.00
4392;BME280;2210;51.938;8.488;2023-03-04T02:30:32;101241.84;;;3.97;100.00
4392;BME280;2210;51.938;8.488;2023-03-04T02:34:35;101239.16;;;3.89;100.00
4392;BME280;2210;51.938;8.488;2023-03-04T02:38:36;101243.19;;;4.01;100.00
4392;BME280;2210;51.938;8.488;2023-03-04T02:42:46;101242.03;;;3.96;100.00
4392;BME280;2210;51.938;8.488;2023-03-04T02:46:46;101234.72;;;3.96;100.00
4392;BME280;2210;51.938;8.488;2023-03-04T02:50:50;101239.66;;;3.93;100.00
4392;BME280;2210;51.938;8.488;2023-03-04T02:54:50;101236.94;;;3.93;100.00
4392;BME280;2210;51.938;8.488;2023-03-04T02:58:50;101235.19;;;4.00;100.00
4392;BME280;2210;51.938;8.488;2023-03-04T03:02:51;101233.00;;;3.95;100.00
4392;BME280;2210;51.938;8.488;2023-03-04T03:06:51;101230.09;;;3.97;100.00
4392;BME280;2210;51.938;8.488;2023-03-04T03:10:51;101233.53;;;3.99;100.00
4392;BME280;2210;51.938;8.488;2023-03-04T03:14:51;101228.38;;;3.96;100.00
4392;BME280;2210;51.938;8.488;2023-03-04T03:18:52;101226.16;;;3.99;100.00
4392;BME280;2210;51.938;8.488;2023-03-04T03:22:52;101218.16;;;3.98;100.00
4392;BME280;2210;51.938;8.488;2023-03-04T03:26:52;101215.44;;;3.98;100.00
4392;BME280;2210;51.938;8.488;2023-03-04T03:30:53;101210.47;;;4.01;100.00
4392;BME280;2210;51.938;8.488;2023-03-04T03:34:54;101208.75;;;4.09;100.00
4392;BME280;2210;51.938;8.488;2023-03-04T03:38:54;101205.38;;;3.98;100.00
4392;BME280;2210;51.938;8.488;2023-03-04T03:42:54;101211.84;;;3.97;100.00
4392;BME280;2210;51.938;8.488;2023-03-04T03:47:01;101212.53;;;3.99;100.00
4392;BME280;2210;51.938;8.488;2023-03-04T03:51:04;101212.72;;;3.98;100.00
4392;BME280;2210;51.938;8.488;2023-03-04T03:55:05;101213.56;;;3.98;100.00
4392;BME280;2210;51.938;8.488;2023-03-04T03:59:05;101214.56;;;3.97;100.00
4392;BME280;2210;51.938;8.488;2023-03-04T04:03:05;101207.06;;;3.99;100.00
4392;BME280;2210;51.938;8.488;2023-03-04T04:07:06;101208.78;;;4.00;100.00
4392;BME280;2210;51.938;8.488;2023-03-04T04:11:13;101204.47;;;4.06;100.00
4392;BME280;2210;51.938;8.488;2023-03-04T04:15:13;101200.88;;;4.05;100.00
4392;BME280;2210;51.938;8.488;2023-03-04T04:19:18;101201.97;;;3.96;100.00
4392;BME280;2210;51.938;8.488;2023-03-04T04:23:25;101187.94;;;4.08;100.00
4392;BME280;2210;51.938;8.488;2023-03-04T04:27:28;101186.22;;;4.07;100.00
4392;BME280;2210;51.938;8.488;2023-03-04T04:31:28;101191.03;;;4.04;100.00
4392;BME280;2210;51.938;8.488;2023-03-04T04:35:34;101188.63;;;4.01;100.00
4392;BME280;2210;51.938;8.488;2023-03-04T04:39:41;101188.13;;;4.06;100.00
4392;BME280;2210;51.938;8.488;2023-03-04T04:43:42;101191.16;;;4.11;100.00
4392;BME280;2210;51.938;8.488;2023-03-04T04:47:54;101185.19;;;4.08;100.00
4392;BME280;2210;51.938;8.488;2023-03-04T04:52:02;101186.22;;;4.07;100.00
4392;BME280;2210;51.938;8.488;2023-03-04T04:56:14;101184.84;;;4.11;100.00
4392;BME280;2210;51.938;8.488;2023-03-04T05:00:16;101180.06;;;4.13;100.00
4392;BME280;2210;51.938;8.488;2023-03-04T05:04:18;101180.06;;;4.13;100.00
4392;BME280;2210;51.938;8.488;2023-03-04T05:08:18;101180.44;;;4.10;100.00
4392;BME280;2210;51.938;8.488;2023-03-04T05:12:18;101183.50;;;4.07;100.00
4392;BME280;2210;51.938;8.488;2023-03-04T05:16:31;101182.97;;;4.11;100.00
4392;BME280;2210;51.938;8.488;2023-03-04T05:20:38;101181.78;;;4.14;100.00
4392;BME280;2210;51.938;8.488;2023-03-04T05:24:38;101173.25;;;4.09;100.00
4392;BME280;2210;51.938;8.488;2023-03-04T05:28:38;101182.09;;;4.11;100.00
4392;BME280;2210;51.938;8.488;2023-03-04T05:32:45;101189.63;;;4.09;100.00
4392;BME280;2210;51.938;8.488;2023-03-04T05:36:46;101180.06;;;4.13;100.00
4392;BME280;2210;51.938;8.488;2023-03-04T05:40:47;101181.63;;;4.07;100.00
4392;BME280;2210;51.938;8.488;2023-03-04T05:44:47;101182.47;;;4.08;100.00
4392;BME280;2210;51.938;8.488;2023-03-04T05:48:47;101187.09;;;4.07;100.00
4392;BME280;2210;51.938;8.488;2023-03-04T05:52:48;101194.41;;;4.07;100.00
4392;BME280;2210;51.938;8.488;2023-03-04T05:56:49;101188.47;;;4.03;100.00
4392;BME280;2210;51.938;8.488;2023-03-04T06:00:59;101189.50;;;4.02;100.00
4392;BME280;2210;51.938;8.488;2023-03-04T06:05:06;101200.41;;;4.02;100.00
4392;BME280;2210;51.938;8.488;2023-03-04T06:09:06;101198.69;;;4.01;100.00
4392;BME280;2210;51.938;8.488;2023-03-04T06:13:09;101196.19;;;3.91;100.00
4392;BME280;2210;51.938;8.488;2023-03-04T06:17:10;101199.63;;;3.85;100.00
4392;BME280;2210;51.938;8.488;2023-03-04T06:21:10;101197.94;;;3.84;100.00
4392;BME280;2210;51.938;8.488;2023-03-04T06:25:14;101200.50;;;3.85;100.00
4392;BME280;2210;51.938;8.488;2023-03-04T06:29:14;101200.50;;;3.85;100.00
4392;BME280;2210;51.938;8.488;2023-03-04T06:33:18;101200.81;;;3.82;100.00
4392;BME280;2210;51.938;8.488;2023-03-04T06:37:18;101204.75;;;3.88;100.00
4392;BME280;2210;51.938;8.488;2023-03-04T06:41:19;101201.47;;;3.93;100.00
4392;BME280;2210;51.938;8.488;2023-03-04T06:45:22;101205.22;;;3.92;100.00
4392;BME280;2210;51.938;8.488;2023-03-04T06:49:22;101207.75;;;3.93;100.00
4392;BME280;2210;51.938;8.488;2023-03-04T06:53:22;101211.03;;;3.88;100.00
4392;BME280;2210;51.938;8.488;2023-03-04T06:57:23;101220.06;;;3.89;100.00
4392;BME280;2210;51.938;8.488;2023-03-04T07:01:29;101214.94;;;3.94;100.00
4392;BME280;2210;51.938;8.488;2023-03-04T07:05:29;101222.75;;;3.97;100.00
4392;BME280;2210;51.938;8.488;2023-03-04T07:09:36;101219.50;;;4.02;100.00
4392;BME280;2210;51.938;8.488;2023-03-04T07:13:36;101225.28;;;4.07;100.00
4392;BME280;2210;51.938;8.488;2023-03-04T07:17:37;101214.53;;;4.14;100.00
4392;BME280;2210;51.938;8.488;2023-03-04T07:21:37;101210.56;;;4.16;100.00
4392;BME280;2210;51.938;8.488;2023-03-04T07:25:37;101209.53;;;4.17;100.00
4392;BME280;2210;51.938;8.488;2023-03-04T07:29:38;101206.81;;;4.17;100.00
4392;BME280;2210;51.938;8.488;2023-03-04T07:33:41;101206.09;;;4.24;100.00
4392;BME280;2210;51.938;8.488;2023-03-04T07:37:45;101210.66;;;4.31;100.00
4392;BME280;2210;51.938;8.488;2023-03-04T07:41:45;101206.38;;;4.37;100.00
4392;BME280;2210;51.938;8.488;2023-03-04T07:45:46;101208.75;;;4.40;100.00
4392;BME280;2210;51.938;8.488;2023-03-04T07:49:46;101214.75;;;4.35;100.00
4392;BME280;2210;51.938;8.488;2023-03-04T07:53:50;101210.66;;;4.31;100.00
4392;BME280;2210;51.938;8.488;2023-03-04T07:57:51;101212.34;;;4.32;100.00
4392;BME280;2210;51.938;8.488;2023-03-04T08:01:51;101213.09;;;4.26;100.00
4392;BME280;2210;51.938;8.488;2023-03-04T08:05:51;101214.09;;;4.25;100.00
4392;BME280;2210;51.938;8.488;2023-03-04T08:09:54;101207.25;;;4.29;100.00
4392;BME280;2210;51.938;8.488;2023-03-04T08:13:55;101210.38;;;4.26;100.00
4392;BME280;2210;51.938;8.488;2023-03-04T08:18:04;101209.94;;;4.37;100.00
4392;BME280;2210;51.938;8.488;2023-03-04T08:22:04;101205.81;;;4.42;100.00
4392;BME280;2210;51.938;8.488;2023-03-04T08:26:06;101214.84;;;4.42;100.00
4392;BME280;2210;51.938;8.488;2023-03-04T08:30:08;101224.16;;;4.33;100.00
4392;BME280;2210;51.938;8.488;2023-03-04T08:34:15;101220.97;;;4.21;100.00
4392;BME280;2210;51.938;8.488;2023-03-04T08:38:16;101216.97;;;4.32;100.00
4392;BME280;2210;51.938;8.488;2023-03-04T08:42:19;101215.97;;;4.33;100.00
4392;BME280;2210;51.938;8.488;2023-03-04T08:46:20;101213.22;;;4.33;100.00
4392;BME280;2210;51.938;8.488;2023-03-04T08:50:20;101212.53;;;4.31;100.00
4392;BME280;2210;51.938;8.488;2023-03-04T08:54:21;101214.19;;;4.40;100.00
4392;BME280;2210;51.938;8.488;2023-03-04T08:58:21;101216.38;;;4.45;100.00
4392;BME280;2210;51.938;8.488;2023-03-04T09:02:24;101207.22;;;4.37;100.00
4392;BME280;2210;51.938;8.488;2023-03-04T09:06:27;101211.28;;;4.42;100.00
4392;BME280;2210;51.938;8.488;2023-03-04T09:10:30;101205.69;;;4.35;100.00
4392;BME280;2210;51.938;8.488;2023-03-04T09:14:40;101197.63;;;4.42;100.00
4392;BME280;2210;51.938;8.488;2023-03-04T09:18:40;101197.56;;;4.50;100.00
4392;BME280;2210;51.938;8.488;2023-03-04T09:22:41;101204.25;;;4.47;100.00
4392;BME280;2210;51.938;8.488;2023-03-04T09:26:41;101205.41;;;4.53;100.00
4392;BME280;2210;51.938;8.488;2023-03-04T09:30:42;101200.88;;;4.45;100.00
4392;BME280;2210;51.938;8.488;2023-03-04T09:34:43;101211.03;;;4.51;100.00
4392;BME280;2210;51.938;8.488;2023-03-04T09:38:43;101205.41;;;4.53;100.00
4392;BME280;2210;51.938;8.488;2023-03-04T09:42:47;101216.69;;;4.50;100.00
4392;BME280;2210;51.938;8.488;2023-03-04T09:46:49;101198.41;;;4.59;100.00
4392;BME280;2210;51.938;8.488;2023-03-04T09:51:17;101204.69;;;4.59;100.00
4392;BME280;2210;51.938;8.488;2023-03-04T09:55:29;101204.88;;;4.58;100.00
4392;BME280;2210;51.938;8.488;2023-03-04T09:59:34;101198.53;;;4.57;100.00
4392;BME280;2210;51.938;8.488;2023-03-04T10:03:44;101184.72;;;4.59;100.00
4392;BME280;2210;51.938;8.488;2023-03-04T10:07:59;101188.63;;;4.64;100.00
4392;BME280;2210;51.938;8.488;2023-03-04T10:12:03;101189.81;;;4.62;100.00
4392;BME280;2210;51.938;8.488;2023-03-04T10:16:08;101181.75;;;4.68;100.00
4392;BME280;2210;51.938;8.488;2023-03-04T10:20:20;101172.53;;;4.69;100.00
4392;BME280;2210;51.938;8.488;2023-03-04T10:24:24;101175.91;;;4.71;100.00
4392;BME280;2210;51.938;8.488;2023-03-04T10:28:28;101185.44;;;4.76;100.00
4392;BME280;2210;51.938;8.488;2023-03-04T10:32:32;101183.09;;;4.72;100.00
4392;BME280;2210;51.938;8.488;2023-03-04T10:36:59;101175.38;;;4.76;100.00
4392;BME280;2210;51.938;8.488;2023-03-04T10:45:25;101171.94;;;4.97;100.00
4392;BME280;2210;51.938;8.488;2023-03-04T10:49:28;101160.28;;;5.03;100.00
4392;BME280;2210;51.938;8.488;2023-03-04T10:53:36;101159.22;;;5.04;100.00
4392;BME280;2210;51.938;8.488;2023-03-04T10:57:40;101151.41;;;5.01;100.00
4392;BME280;2210;51.938;8.488;2023-03-04T11:01:42;101150.00;;;5.05;100.00
4392;BME280;2210;51.938;8.488;2023-03-04T11:05:42;101145.56;;;5.04;100.00
4392;BME280;2210;51.938;8.488;2023-03-04T11:09:44;101148.59;;;5.10;100.00
4392;BME280;2210;51.938;8.488;2023-03-04T11:13:50;101148.72;;;5.16;100.00
4392;BME280;2210;51.938;8.488;2023-03-04T11:17:59;101144.47;;;5.29;100.00
4392;BME280;2210;51.938;8.488;2023-03-04T11:22:02;101148.81;;;5.53;100.00
4392;BME280;2210;51.938;8.488;2023-03-04T11:26:08;101149.59;;;5.77;100.00
4392;BME280;2210;51.938;8.488;2023-03-04T11:30:21;101151.00;;;6.02;100.00
4392;BME280;2210;51.938;8.488;2023-03-04T11:34:37;101134.19;;;5.90;100.00
4392;BME280;2210;51.938;8.488;2023-03-04T11:38:45;101130.75;;;5.88;100.00
4392;BME280;2210;51.938;8.488;2023-03-04T11:43:34;101126.06;;;5.82;100.00
4392;BME280;2210;51.938;8.488;2023-03-04T11:51:52;101136.44;;;5.87;100.00
4392;BME280;2210;51.938;8.488;2023-03-04T11:56:29;101129.00;;;5.81;100.00
4392;BME280;2210;51.938;8.488;2023-03-04T12:00:42;101133.81;;;5.79;100.00
4392;BME280;2210;51.938;8.488;2023-03-04T12:05:10;101123.25;;;5.76;100.00
4392;BME280;2210;51.938;8.488;2023-03-04T12:09:27;101125.09;;;5.90;100.00
4392;BME280;2210;51.938;8.488;2023-03-04T12:14:01;101109.06;;;6.02;100.00
4392;BME280;2210;51.938;8.488;2023-03-04T12:18:29;101091.00;;;6.07;100.00
4392;BME280;2210;51.938;8.488;2023-03-04T12:22:42;101092.59;;;6.17;100.00
4392;BME280;2210;51.938;8.488;2023-03-04T12:31:41;101081.06;;;6.21;100.00
4392;BME280;2210;51.938;8.488;2023-03-04T12:35:51;101068.22;;;6.22;100.00
4392;BME280;2210;51.938;8.488;2023-03-04T12:40:14;101068.22;;;6.22;99.24
4392;BME280;2210;51.938;8.488;2023-03-04T12:44:18;101062.16;;;6.27;98.83
4392;BME280;2210;51.938;8.488;2023-03-04T12:48:30;101066.50;;;6.43;99.61
4392;BME280;2210;51.938;8.488;2023-03-04T12:56:53;101048.69;;;6.53;95.24
4392;BME280;2210;51.938;8.488;2023-03-04T13:01:01;101052.00;;;6.70;96.65
4392;BME280;2210;51.938;8.488;2023-03-04T13:09:46;101042.34;;;6.74;95.38
4392;BME280;2210;51.938;8.488;2023-03-04T13:14:03;101043.72;;;6.92;95.79
4392;BME280;2210;51.938;8.488;2023-03-04T13:26:39;101033.50;;;7.07;96.01
4392;BME280;2210;51.938;8.488;2023-03-04T13:34:50;101030.25;;;6.97;93.96
4392;BME280;2210;51.938;8.488;2023-03-04T13:48:03;101016.69;;;6.89;91.64
4392;BME280;2210;51.938;8.488;2023-03-04T13:52:36;101015.81;;;6.82;90.49
4392;BME280;2210;51.938;8.488;2023-03-04T13:56:48;101019.38;;;6.75;90.63
4392;BME280;2210;51.938;8.488;2023-03-04T14:01:26;101030.94;;;6.71;95.66
4392;BME280;2210;51.938;8.488;2023-03-04T14:05:27;101029.47;;;6.25;100.00
4392;BME280;2210;51.938;8.488;2023-03-04T14:09:32;101035.91;;;6.11;100.00
4392;BME280;2210;51.938;8.488;2023-03-04T14:13:36;101031.31;;;6.18;100.00
4392;BME280;2210;51.938;8.488;2023-03-04T14:17:36;101025.00;;;6.17;100.00
4392;BME280;2210;51.938;8.488;2023-03-04T14:21:43;101010.66;;;6.15;100.00
4392;BME280;2210;51.938;8.488;2023-03-04T14:25:44;101014.00;;;6.11;100.00
4392;BME280;2210;51.938;8.488;2023-03-04T14:29:53;101010.59;;;6.08;100.00
4392;BME280;2210;51.938;8.488;2023-03-04T14:33:56;101015.09;;;6.16;100.00
4392;BME280;2210;51.938;8.488;2023-03-04T14:38:04;101007.56;;;6.25;100.00
4392;BME280;2210;51.938;8.488;2023-03-04T14:42:26;101001.13;;;6.33;100.00
4392;BME280;2210;51.938;8.488;2023-03-04T14:46:36;100995.03;;;6.37;100.00
4392;BME280;2210;51.938;8.488;2023-03-04T14:50:50;100986.44;;;6.40;99.83
4392;BME280;2210;51.938;8.488;2023-03-04T14:59:01;100985.25;;;6.50;96.82
4392;BME280;2210;51.938;8.488;2023-03-04T15:03:05;100981.06;;;6.54;97.08
4392;BME280;2210;51.938;8.488;2023-03-04T15:07:13;100972.75;;;6.40;93.24
4392;BME280;2210;51.938;8.488;2023-03-04T15:11:48;100986.81;;;6.37;92.25
4392;BME280;2210;51.938;8.488;2023-03-04T15:15:59;100986.59;;;6.32;93.18
4392;BME280;2210;51.938;8.488;2023-03-04T15:24:08;100982.09;;;6.24;92.98
4392;BME280;2210;51.938;8.488;2023-03-04T15:28:17;100986.41;;;6.12;92.58
4392;BME280;2210;51.938;8.488;2023-03-04T15:32:17;100992.53;;;6.14;92.29
4392;BME280;2210;51.938;8.488;2023-03-04T15:36:20;100988.75;;;6.15;91.20
4392;BME280;2210;51.938;8.488;2023-03-04T15:40:30;100985.75;;;6.10;90.29
4392;BME280;2210;51.938;8.488;2023-03-04T15:44:31;100991.84;;;6.05;89.41
4392;BME280;2210;51.938;8.488;2023-03-04T15:48:31;100987.38;;;6.04;90.30
4392;BME280;2210;51.938;8.488;2023-03-04T15:52:31;100985.69;;;6.03;90.70
4392;BME280;2210;51.938;8.488;2023-03-04T15:56:33;100986.56;;;6.04;90.79
4392;BME280;2210;51.938;8.488;2023-03-04T16:00:33;100985.06;;;6.01;89.78
4392;BME280;2210;51.938;8.488;2023-03-04T16:04:33;100977.38;;;5.97;87.29
4392;BME280;2210;51.938;8.488;2023-03-04T16:08:34;100981.75;;;5.91;87.08
4392;BME280;2210;51.938;8.488;2023-03-04T16:12:34;100987.44;;;5.89;87.28
4392;BME280;2210;51.938;8.488;2023-03-04T16:16:34;100993.28;;;5.86;86.90
4392;BME280;2210;51.938;8.488;2023-03-04T16:20:35;101000.41;;;5.81;88.28
4392;BME280;2210;51.938;8.488;2023-03-04T16:24:36;100999.81;;;5.49;97.49
4392;BME280;2210;51.938;8.488;2023-03-04T16:28:36;100999.56;;;5.29;100.00
4392;BME280;2210;51.938;8.488;2023-03-04T16:32:37;100997.25;;;5.11;100.00
4392;BME280;2210;51.938;8.488;2023-03-04T16:36:37;100999.50;;;4.92;100.00
4392;BME280;2210;51.938;8.488;2023-03-04T16:40:37;100999.41;;;4.70;100.00
4392;BME280;2210;51.938;8.488;2023-03-04T16:44:38;100990.94;;;4.65;100.00
4392;BME280;2210;51.938;8.488;2023-03-04T16:48:39;100992.31;;;4.61;100.00
4392;BME280;2210;51.938;8.488;2023-03-04T16:52:42;100995.34;;;4.66;100.00
4392;BME280;2210;51.938;8.488;2023-03-04T16:56:43;100993.66;;;4.65;100.00
4392;BME280;2210;51.938;8.488;2023-03-04T17:00:43;100987.53;;;4.63;100.00
4392;BME280;2210;51.938;8.488;2023-03-04T17:04:44;101000.25;;;4.56;100.00
4392;BME280;2210;51.938;8.488;2023-03-04T17:08:45;101005.41;;;4.51;100.00
4392;BME280;2210;51.938;8.488;2023-03-04T17:12:45;101007.13;;;4.52;100.00
4392;BME280;2210;51.938;8.488;2023-03-04T17:16:46;101016.25;;;4.59;100.00
4392;BME280;2210;51.938;8.488;2023-03-04T17:20:47;101027.19;;;4.59;100.00
4392;BME280;2210;51.938;8.488;2023-03-04T17:24:47;101014.09;;;4.54;100.00
4392;BME280;2210;51.938;8.488;2023-03-04T17:28:49;101031.50;;;4.53;100.00
4392;BME280;2210;51.938;8.488;2023-03-04T17:32:49;101027.91;;;4.53;100.00
4392;BME280;2210;51.938;8.488;2023-03-04T17:36:49;101033.84;;;4.56;100.00
4392;BME280;2210;51.938;8.488;2023-03-04T17:40:49;101040.53;;;4.54;100.00
4392;BME280;2210;51.938;8.488;2023-03-04T17:44:59;101036.28;;;4.51;100.00
4392;BME280;2210;51.938;8.488;2023-03-04T17:48:59;101046.44;;;4.43;100.00
4392;BME280;2210;51.938;8.488;2023-03-04T17:53:02;101042.38;;;4.38;100.00
4392;BME280;2210;51.938;8.488;2023-03-04T17:57:08;101036.25;;;4.36;100.00
4392;BME280;2210;51.938;8.488;2023-03-04T18:01:17;101028.44;;;4.33;100.00
4392;BME280;2210;51.938;8.488;2023-03-04T18:05:21;101028.44;;;4.33;100.00
4392;BME280;2210;51.938;8.488;2023-03-04T18:09:28;101028.44;;;4.33;100.00
4392;BME280;2210;51.938;8.488;2023-03-04T18:13:28;101030.47;;;4.31;100.00
4392;BME280;2210;51.938;8.488;2023-03-04T18:17:29;101030.13;;;4.34;100.00
4392;BME280;2210;51.938;8.488;2023-03-04T18:21:29;101025.03;;;4.31;100.00
4392;BME280;2210;51.938;8.488;2023-03-04T18:25:36;101029.84;;;4.29;100.00
4392;BME280;2210;51.938;8.488;2023-03-04T18:29:42;101033.06;;;4.33;100.00
4392;BME280;2210;51.938;8.488;2023-03-04T18:33:42;101020.81;;;4.29;100.00
4392;BME280;2210;51.938;8.488;2023-03-04T18:37:47;101025.03;;;4.31;100.00
4392;BME280;2210;51.938;8.488;2023-03-04T18:41:50;101019.94;;;4.28;100.00
4392;BME280;2210;51.938;8.488;2023-03-04T18:46:09;101023.03;;;4.25;100.00
4392;BME280;2210;51.938;8.488;2023-03-04T18:50:10;101020.69;;;4.22;100.00
4392;BME280;2210;51.938;8.488;2023-03-04T18:54:11;101020.00;;;4.20;100.00
4392;BME280;2210;51.938;8.488;2023-03-04T18:58:14;101026.50;;;4.19;100.00
4392;BME280;2210;51.938;8.488;2023-03-04T19:06:24;101024.31;;;4.14;100.00
4392;BME280;2210;51.938;8.488;2023-03-04T19:10:24;101019.06;;;4.13;100.00
4392;BME280;2210;51.938;8.488;2023-03-04T19:14:25;101024.50;;;4.13;100.00
4392;BME280;2210;51.938;8.488;2023-03-04T19:18:31;101025.91;;;4.09;100.00
4392;BME280;2210;51.938;8.488;2023-03-04T19:22:35;101032.03;;;4.11;100.00
4392;BME280;2210;51.938;8.488;2023-03-04T19:26:35;101035.97;;;4.08;100.00
4392;BME280;2210;51.938;8.488;2023-03-04T19:30:37;101035.13;;;4.08;100.00
4392;BME280;2210;51.938;8.488;2023-03-04T19:34:37;101029.28;;;4.11;100.00
4392;BME280;2210;51.938;8.488;2023-03-04T19:38:41;101038.16;;;4.13;100.00
4392;BME280;2210;51.938;8.488;2023-03-04T19:42:42;101039.56;;;4.09;100.00
4392;BME280;2210;51.938;8.488;2023-03-04T19:46:42;101034.44;;;4.05;100.00
4392;BME280;2210;51.938;8.488;2023-03-04T19:50:43;101039.25;;;4.03;100.00
4392;BME280;2210;51.938;8.488;2023-03-04T19:54:43;101039.56;;;4.09;100.00
4392;BME280;2210;51.938;8.488;2023-03-04T19:58:43;101046.41;;;4.04;100.00
4392;BME280;2210;51.938;8.488;2023-03-04T20:02:47;101046.75;;;4.01;100.00
4392;BME280;2210;51.938;8.488;2023-03-04T20:06:49;101039.25;;;4.03;100.00
4392;BME280;2210;51.938;8.488;2023-03-04T20:10:50;101052.88;;;4.03;100.00
4392;BME280;2210;51.938;8.488;2023-03-04T20:14:53;101057.66;;;4.01;100.00
4392;BME280;2210;51.938;8.488;2023-03-04T20:18:54;101054.28;;;3.99;100.00
4392;BME280;2210;51.938;8.488;2023-03-04T20:22:59;101060.25;;;3.95;100.00
4392;BME280;2210;51.938;8.488;2023-03-04T20:27:00;101050.88;;;3.97;100.00
4392;BME280;2210;51.938;8.488;2023-03-04T20:31:17;101053.97;;;3.94;100.00
4392;BME280;2210;51.938;8.488;2023-03-04T20:35:19;101044.06;;;3.93;100.00
4392;BME280;2210;51.938;8.488;2023-03-04T20:39:19;101050.75;;;3.91;100.00
4392;BME280;2210;51.938;8.488;2023-03-04T20:43:19;101047.84;;;3.92;100.00
4392;BME280;2210;51.938;8.488;2023-03-04T20:47:31;101054.34;;;3.91;100.00
4392;BME280;2210;51.938;8.488;2023-03-04T20:51:31;101050.09;;;3.88;100.00
4392;BME280;2210;51.938;8.488;2023-03-04T20:55:35;101046.88;;;3.85;100.00
4392;BME280;2210;51.938;8.488;2023-03-04T20:59:37;101046.22;;;3.83;100.00
4392;BME280;2210;51.938;8.488;2023-03-04T21:03:38;101049.13;;;3.81;100.00
4392;BME280;2210;51.938;8.488;2023-03-04T21:07:39;101048.44;;;3.79;100.00
4392;BME280;2210;51.938;8.488;2023-03-04T21:11:43;101041.09;;;3.80;100.00
4392;BME280;2210;51.938;8.488;2023-03-04T21:20:04;101036.75;;;3.70;100.00
4392;BME280;2210;51.938;8.488;2023-03-04T21:24:05;101038.97;;;3.67;100.00
4392;BME280;2210;51.938;8.488;2023-03-04T21:28:14;101034.34;;;3.67;100.00
4392;BME280;2210;51.938;8.488;2023-03-04T21:32:20;101036.59;;;3.64;100.00
4392;BME280;2210;51.938;8.488;2023-03-04T21:36:22;101029.63;;;3.61;100.00
4392;BME280;2210;51.938;8.488;2023-03-04T21:40:25;101036.78;;;3.62;100.00
4392;BME280;2210;51.938;8.488;2023-03-04T21:44:37;101027.94;;;3.60;100.00
4392;BME280;2210;51.938;8.488;2023-03-04T21:48:44;101020.81;;;3.51;100.00
4392;BME280;2210;51.938;8.488;2023-03-04T21:52:49;101021.53;;;3.45;100.00
4392;BME280;2210;51.938;8.488;2023-03-04T21:57:04;101030.25;;;3.40;100.00
4392;BME280;2210;51.938;8.488;2023-03-04T22:01:23;101018.50;;;3.40;100.00
4392;BME280;2210;51.938;8.488;2023-03-04T22:05:23;101019.19;;;3.33;100.00
4392;BME280;2210;51.938;8.488;2023-03-04T22:09:27;101019.00;;;3.35;100.00
4392;BME280;2210;51.938;8.488;2023-03-04T22:13:33;101014.78;;;3.32;100.00
4392;BME280;2210;51.938;8.488;2023-03-04T22:17:42;101007.28;;;3.34;100.00
4392;BME280;2210;51.938;8.488;2023-03-04T22:21:47;100996.00;;;3.37;100.00
4392;BME280;2210;51.938;8.488;2023-03-04T22:26:03;101003.84;;;3.41;100.00
4392;BME280;2210;51.938;8.488;2023-03-04T22:30:05;101008.25;;;3.42;100.00
4392;BME280;2210;51.938;8.488;2023-03-04T22:34:11;101006.91;;;3.37;100.00
4392;BME280;2210;51.938;8.488;2023-03-04T22:38:12;101001.97;;;3.41;100.00
4392;BME280;2210;51.938;8.488;2023-03-04T22:42:18;100995.97;;;3.46;100.00
4392;BME280;2210;51.938;8.488;2023-03-04T22:46:30;100992.13;;;3.32;100.00
4392;BME280;2210;51.938;8.488;2023-03-04T22:50:34;100993.28;;;3.37;100.00
4392;BME280;2210;51.938;8.488;2023-03-04T22:54:34;100989.59;;;3.30;100.00